Aviation Digital Data Service (ADDS)

Output produced by METARs form (0507 UTC 18 February 2018)
found at http://aviationweather.gov/adds/metars/
 
METAR text: KCVC 180436Z AUTO 27004KT 10SM BKN025 OVC032 19/16 A3012 RMK AO2
Conditions at: KCVC (COVINGTON MUNI , GA, US) observed 0436 UTC 18 February 2018
Temperature: 19.0°C (66°F)
Dewpoint: 16.0°C (61°F) [RH = 83%]
Pressure (altimeter): 30.12 inches Hg (1020.1 mb)
Winds: from the W (270 degrees) at 5 MPH (4 knots; 2.1 m/s)
Visibility: 10 or more miles (16+ km)
Ceiling: 2500 feet AGL
Clouds: broken clouds at 2500 feet AGL
overcast cloud deck at 3200 feet AGL
Weather: automated observation with no human augmentation;
there may or may not be significant weather present at this time